NC31 weather

Quiet Acres Airport
Thomasville, North Carolina, United States

Public forecast

Using degrees Fahrenheit for public forecast. Weather courtesy of forecast.io.

Closest aviation weather report (METAR) to Quiet Acres Airport

Closest report is Asheboro Regional Airport, 9.2 nm (17.0 km) SE. Retrieved 2019/10/23 20:35 UTC (22 seconds ago):

KHBI 232035Z AUTO 35003KT 10SM CLR 19/01 A3016 RMK AO2 T01880011

Closest aviation forecast (TAF) to Quiet Acres Airport

Closest forecast is Piedmont Triad International Airport, 20.4 nm (37.8 km) NNE. Retrieved 2019/10/23 18:42 UTC (2 hours ago):

TAF KGSO 231738Z 2318/2418 VRB04KT P6SM SKC